createdAt,value
2023-05-14T00:01:38.260Z,9.20
2023-05-14T00:04:05.441Z,9.10
2023-05-14T00:06:32.277Z,9.10
2023-05-14T00:08:59.055Z,9.10
2023-05-14T00:11:26.053Z,9.10
2023-05-14T00:13:52.868Z,9.10
2023-05-14T00:16:19.701Z,9.10
2023-05-14T00:18:46.653Z,9.10
2023-05-14T00:21:13.509Z,9.10
2023-05-14T00:23:40.372Z,9.10
2023-05-14T00:26:07.231Z,9.10
2023-05-14T00:28:33.984Z,9.10
2023-05-14T00:31:00.882Z,9.10
2023-05-14T00:33:27.868Z,9.10
2023-05-14T00:35:54.720Z,9.00
2023-05-14T00:38:21.587Z,9.00
2023-05-14T00:40:51.976Z,9.00
2023-05-14T00:43:22.722Z,9.00
2023-05-14T00:45:51.192Z,9.00
2023-05-14T00:48:18.271Z,9.00
2023-05-14T00:50:45.500Z,9.00
2023-05-14T00:53:12.458Z,9.00
2023-05-14T00:55:40.781Z,9.00
2023-05-14T00:58:09.959Z,9.00
2023-05-14T01:00:37.318Z,9.00
2023-05-14T01:03:04.937Z,9.00
2023-05-14T01:05:50.824Z,9.00
2023-05-14T01:08:17.623Z,9.00
2023-05-14T01:10:57.780Z,9.00
2023-05-14T01:13:32.273Z,8.90
2023-05-14T01:16:00.347Z,8.90
2023-05-14T01:18:28.216Z,9.00
2023-05-14T01:20:55.089Z,9.00
2023-05-14T01:23:21.905Z,9.00
2023-05-14T01:25:48.675Z,9.00
2023-05-14T01:28:19.781Z,9.00
2023-05-14T01:30:55.743Z,9.00
2023-05-14T01:33:24.849Z,9.00
2023-05-14T01:35:53.774Z,9.00
2023-05-14T01:38:21.624Z,9.00
2023-05-14T01:40:49.196Z,9.00
2023-05-14T01:43:16.425Z,9.00
2023-05-14T01:45:43.963Z,9.00
2023-05-14T01:48:11.085Z,8.90
2023-05-14T01:50:38.074Z,8.90
2023-05-14T01:53:04.898Z,8.90
2023-05-14T01:55:31.720Z,8.90
2023-05-14T01:57:58.639Z,8.80
2023-05-14T02:00:26.231Z,8.90
2023-05-14T02:02:53.349Z,8.80
2023-05-14T02:05:20.326Z,8.80
2023-05-14T02:07:47.123Z,8.80
2023-05-14T02:10:13.986Z,8.80
2023-05-14T02:12:40.807Z,8.80
2023-05-14T02:15:09.059Z,8.80
2023-05-14T02:17:35.910Z,8.80
2023-05-14T02:20:02.930Z,8.80
2023-05-14T02:22:29.713Z,8.90
2023-05-14T02:24:56.537Z,8.80
2023-05-14T02:27:23.305Z,8.90
2023-05-14T02:29:50.055Z,8.90
2023-05-14T02:32:16.931Z,8.90
2023-05-14T02:34:43.684Z,8.90
2023-05-14T02:37:10.469Z,8.90
2023-05-14T02:39:37.315Z,8.90
2023-05-14T02:42:04.252Z,8.90
2023-05-14T02:44:31.933Z,8.90
2023-05-14T02:46:58.780Z,9.00
2023-05-14T02:49:25.750Z,9.00
2023-05-14T02:51:54.412Z,9.00
2023-05-14T02:54:21.255Z,9.00
2023-05-14T02:56:48.433Z,9.00
2023-05-14T02:59:15.411Z,9.00
2023-05-14T03:01:42.760Z,9.10
2023-05-14T03:04:10.122Z,9.10
2023-05-14T03:06:37.008Z,9.10
2023-05-14T03:09:03.936Z,9.00
2023-05-14T03:11:30.829Z,9.00
2023-05-14T03:13:57.584Z,9.00
2023-05-14T03:16:24.505Z,9.10
2023-05-14T03:18:51.466Z,9.00
2023-05-14T03:21:18.366Z,9.00
2023-05-14T03:23:45.189Z,9.00
2023-05-14T03:26:11.992Z,8.90
2023-05-14T03:28:38.768Z,8.90
2023-05-14T03:31:05.724Z,8.90
2023-05-14T03:33:32.563Z,8.80
2023-05-14T03:35:59.315Z,8.80
2023-05-14T03:38:26.112Z,8.80
2023-05-14T03:40:52.880Z,8.80
2023-05-14T03:43:19.726Z,8.80
2023-05-14T03:45:47.138Z,8.70
2023-05-14T03:48:14.064Z,8.80
2023-05-14T03:50:41.170Z,8.70
2023-05-14T03:53:07.974Z,8.70
2023-05-14T03:55:34.726Z,8.70
2023-05-14T03:58:02.551Z,8.70
2023-05-14T04:00:29.424Z,8.70
2023-05-14T04:02:56.472Z,8.60
2023-05-14T04:05:23.369Z,8.60
2023-05-14T04:07:50.226Z,8.60
2023-05-14T04:10:17.035Z,8.70
2023-05-14T04:12:43.795Z,8.70
2023-05-14T04:15:10.920Z,8.70
2023-05-14T04:17:37.755Z,8.70
2023-05-14T04:20:04.777Z,8.60
2023-05-14T04:22:32.288Z,8.50
2023-05-14T04:24:59.133Z,8.50
2023-05-14T04:27:25.970Z,8.40
2023-05-14T04:29:52.783Z,8.40
2023-05-14T04:32:19.549Z,8.40
2023-05-14T04:34:47.342Z,8.40
2023-05-14T04:37:14.286Z,8.40
2023-05-14T04:39:41.100Z,8.30
2023-05-14T04:42:08.246Z,8.30
2023-05-14T04:44:35.586Z,8.30
2023-05-14T04:47:02.925Z,8.30
2023-05-14T04:49:29.847Z,8.40
2023-05-14T04:51:56.665Z,8.40
2023-05-14T04:54:23.477Z,8.30
2023-05-14T04:56:50.820Z,8.40
2023-05-14T04:59:17.688Z,8.40
2023-05-14T05:01:45.577Z,8.40
2023-05-14T05:04:12.804Z,8.40
2023-05-14T05:06:39.924Z,8.40
2023-05-14T05:09:06.697Z,8.40
2023-05-14T05:11:33.461Z,8.50
2023-05-14T05:14:00.241Z,8.40
2023-05-14T05:16:27.117Z,8.50
2023-05-14T05:18:54.076Z,8.50
2023-05-14T05:21:20.891Z,8.60
2023-05-14T05:23:47.626Z,8.70
2023-05-14T05:26:14.408Z,8.80
2023-05-14T05:28:41.226Z,8.80
2023-05-14T05:31:08.276Z,8.80
2023-05-14T05:33:35.346Z,9.00
2023-05-14T05:36:02.145Z,9.10
2023-05-14T05:38:28.894Z,9.20
2023-05-14T05:40:55.658Z,9.20
2023-05-14T05:43:22.480Z,9.30
2023-05-14T05:45:49.231Z,9.40
2023-05-14T05:48:16.153Z,9.60
2023-05-14T05:50:44.905Z,9.80
2023-05-14T05:53:12.540Z,9.90
2023-05-14T05:55:39.370Z,10.00
2023-05-14T05:58:06.154Z,10.10
2023-05-14T06:00:33.252Z,10.40
2023-05-14T06:03:00.132Z,10.60
2023-05-14T06:05:27.132Z,10.60
2023-05-14T06:07:53.895Z,10.70
2023-05-14T06:10:20.948Z,10.80
2023-05-14T06:12:47.778Z,10.90
2023-05-14T06:15:14.565Z,11.10
2023-05-14T06:17:41.604Z,11.10
2023-05-14T06:20:09.116Z,11.20
2023-05-14T06:22:35.953Z,11.20
2023-05-14T06:25:02.727Z,11.20
2023-05-14T06:27:29.600Z,11.30
2023-05-14T06:29:56.500Z,11.30
2023-05-14T06:32:23.439Z,11.30
2023-05-14T06:34:50.394Z,11.30
2023-05-14T06:37:17.202Z,11.40
2023-05-14T06:39:50.316Z,11.40
2023-05-14T06:42:17.410Z,11.60
2023-05-14T06:44:44.460Z,11.60
2023-05-14T06:47:11.289Z,11.80
2023-05-14T06:49:38.272Z,12.00
2023-05-14T06:52:05.188Z,12.20
2023-05-14T06:54:32.081Z,12.40
2023-05-14T06:56:58.864Z,12.80
2023-05-14T06:59:25.669Z,13.10
2023-05-14T07:01:52.558Z,13.40
2023-05-14T07:04:19.648Z,13.50
2023-05-14T07:06:46.506Z,13.70
2023-05-14T07:09:13.390Z,13.90
2023-05-14T07:11:40.204Z,14.10
2023-05-14T07:14:06.947Z,14.20
2023-05-14T07:16:36.164Z,14.30
2023-05-14T07:19:03.069Z,14.30
2023-05-14T07:21:29.897Z,14.20
2023-05-14T07:23:56.667Z,14.20
2023-05-14T07:26:24.619Z,14.40
2023-05-14T07:28:51.426Z,14.60
2023-05-14T07:31:18.296Z,14.90
2023-05-14T07:33:45.199Z,14.90
2023-05-14T07:36:12.091Z,15.10
2023-05-14T07:38:38.881Z,14.90
2023-05-14T07:41:05.764Z,14.90
2023-05-14T07:43:32.582Z,15.10
2023-05-14T07:45:59.359Z,15.30
2023-05-14T07:48:26.322Z,15.40
2023-05-14T07:50:53.142Z,15.50
2023-05-14T07:53:19.888Z,15.60
2023-05-14T07:55:48.484Z,15.70
2023-05-14T07:58:15.732Z,15.70
2023-05-14T08:00:42.478Z,15.80
2023-05-14T08:03:09.433Z,16.00
2023-05-14T08:05:36.414Z,16.10
2023-05-14T08:08:03.325Z,16.20
2023-05-14T08:12:57.571Z,16.60
2023-05-14T08:15:26.456Z,16.70
2023-05-14T08:17:55.055Z,16.70
2023-05-14T08:20:22.730Z,16.80
2023-05-14T08:22:49.747Z,16.80
2023-05-14T08:25:16.590Z,16.70
2023-05-14T08:27:43.389Z,16.80
2023-05-14T08:30:10.346Z,16.90
2023-05-14T08:32:38.760Z,16.90
2023-05-14T08:35:05.804Z,17.00
2023-05-14T08:37:32.628Z,17.00
2023-05-14T08:39:59.448Z,16.90
2023-05-14T08:42:27.036Z,17.00
2023-05-14T08:44:57.177Z,17.20
2023-05-14T08:47:24.174Z,17.30
2023-05-14T08:50:04.595Z,17.50
2023-05-14T08:52:31.757Z,17.40
2023-05-14T08:55:04.617Z,17.60
2023-05-14T08:57:32.839Z,17.70
2023-05-14T09:00:00.614Z,17.70
2023-05-14T09:02:34.105Z,17.80
2023-05-14T09:05:01.998Z,17.80
2023-05-14T09:07:29.278Z,17.90
2023-05-14T09:09:56.340Z,17.80
2023-05-14T09:12:23.326Z,17.70
2023-05-14T09:14:51.017Z,17.90
2023-05-14T09:17:18.296Z,18.00
2023-05-14T09:19:47.864Z,17.90
2023-05-14T09:41:54.851Z,18.10
2023-05-14T09:44:22.078Z,18.30
2023-05-14T09:46:49.561Z,18.40
2023-05-14T09:49:16.434Z,18.50
2023-05-14T09:51:43.188Z,18.60
2023-05-14T09:54:10.182Z,18.60
2023-05-14T09:56:37.331Z,18.40
2023-05-14T09:59:04.342Z,18.50
2023-05-14T10:01:33.002Z,18.50
2023-05-14T10:04:00.393Z,18.50
2023-05-14T10:06:28.593Z,18.60
2023-05-14T10:08:56.545Z,18.70
2023-05-14T10:11:28.550Z,18.90
2023-05-14T10:14:01.450Z,18.80
2023-05-14T10:16:32.078Z,19.00
2023-05-14T10:19:01.492Z,19.00
2023-05-14T10:21:29.947Z,19.00
2023-05-14T10:23:56.754Z,19.10
2023-05-14T10:26:24.152Z,19.20
2023-05-14T10:28:51.001Z,19.40
2023-05-14T10:31:17.830Z,19.50
2023-05-14T10:33:48.257Z,19.60
2023-05-14T10:36:15.031Z,19.50
2023-05-14T10:38:41.846Z,19.60
2023-05-14T10:41:12.965Z,19.70
2023-05-14T10:43:40.373Z,19.60
2023-05-14T10:46:08.119Z,19.60
2023-05-14T10:48:35.030Z,19.60
2023-05-14T10:51:02.724Z,19.50
2023-05-14T10:53:33.103Z,19.40
2023-05-14T10:56:04.518Z,19.40
2023-05-14T10:58:33.941Z,19.30
2023-05-14T11:01:01.454Z,19.10
2023-05-14T11:03:32.023Z,18.90
2023-05-14T11:06:01.763Z,18.70
2023-05-14T11:08:29.476Z,18.50
2023-05-14T11:10:56.859Z,18.10
2023-05-14T11:13:23.666Z,17.70
2023-05-14T11:15:50.718Z,17.50
2023-05-14T11:20:44.954Z,17.10
2023-05-14T11:23:11.692Z,17.00
2023-05-14T11:25:38.411Z,16.90
2023-05-14T11:28:05.189Z,16.70
2023-05-14T11:30:31.940Z,16.60
2023-05-14T11:33:01.191Z,16.50
2023-05-14T11:35:29.113Z,16.30
2023-05-14T11:37:55.866Z,16.20
2023-05-14T11:40:22.897Z,16.20
2023-05-14T11:42:53.701Z,16.20
2023-05-14T11:45:27.378Z,16.10
2023-05-14T11:47:54.969Z,16.10
2023-05-14T11:50:22.530Z,16.20
2023-05-14T11:52:50.883Z,16.40
2023-05-14T11:55:17.989Z,16.30
2023-05-14T11:57:44.876Z,16.30
2023-05-14T12:00:16.899Z,16.40
2023-05-14T12:02:43.984Z,16.50
2023-05-14T12:05:12.973Z,16.40
2023-05-14T12:07:39.767Z,16.40
2023-05-14T12:10:06.787Z,16.40
2023-05-14T12:12:39.518Z,16.30
2023-05-14T12:15:13.598Z,15.90
2023-05-14T12:17:40.521Z,15.90
2023-05-14T12:20:11.145Z,16.10
2023-05-14T12:22:38.365Z,15.80
2023-05-14T12:25:11.251Z,15.80
2023-05-14T12:27:38.090Z,15.70
2023-05-14T12:30:20.599Z,15.60
2023-05-14T12:32:53.656Z,15.40
2023-05-14T12:35:21.345Z,15.50
2023-05-14T12:37:48.297Z,15.40
2023-05-14T12:40:15.095Z,15.50
2023-05-14T12:42:41.863Z,15.30
2023-05-14T12:45:08.903Z,15.10
2023-05-14T12:47:37.223Z,15.10
2023-05-14T12:50:04.666Z,15.20
2023-05-14T12:55:01.568Z,15.10
2023-05-14T12:57:29.961Z,15.10
2023-05-14T12:59:57.666Z,15.20
2023-05-14T13:02:24.754Z,15.20
2023-05-14T13:04:51.563Z,15.20
2023-05-14T13:07:18.598Z,15.30
2023-05-14T13:09:45.782Z,15.30
2023-05-14T13:12:12.785Z,15.40
2023-05-14T13:14:39.551Z,15.30
2023-05-14T13:17:08.274Z,15.30
2023-05-14T13:19:35.162Z,15.30
2023-05-14T13:22:02.032Z,15.40
2023-05-14T13:24:28.932Z,15.40
2023-05-14T13:26:55.964Z,15.30
2023-05-14T13:29:22.938Z,15.30
2023-05-14T13:31:50.106Z,15.30
2023-05-14T13:34:16.961Z,15.40
2023-05-14T13:36:43.837Z,15.40
2023-05-14T13:39:14.131Z,15.30
2023-05-14T13:41:41.421Z,15.40
2023-05-14T13:44:08.325Z,15.40
2023-05-14T13:49:02.365Z,15.50
2023-05-14T13:51:29.094Z,15.40
2023-05-14T13:53:56.200Z,15.50
2023-05-14T13:56:23.305Z,15.60
2023-05-14T13:58:50.105Z,15.60
2023-05-14T14:01:16.985Z,15.60
2023-05-14T14:03:43.816Z,15.50
2023-05-14T14:06:10.904Z,15.50
2023-05-14T14:08:37.637Z,15.30
2023-05-14T14:11:04.545Z,14.70
2023-05-14T14:13:31.294Z,14.20
2023-05-14T14:15:58.447Z,13.80
2023-05-14T14:18:25.791Z,13.50
2023-05-14T14:20:52.725Z,13.20
2023-05-14T14:23:19.789Z,13.00
2023-05-14T14:25:47.111Z,12.80
2023-05-14T14:28:14.034Z,12.60
2023-05-14T14:30:41.170Z,12.60
2023-05-14T14:33:08.121Z,12.50
2023-05-14T14:35:35.875Z,12.40
2023-05-14T14:38:02.857Z,12.40
2023-05-14T14:40:29.932Z,12.30
2023-05-14T14:42:56.717Z,12.30
2023-05-14T14:45:23.693Z,12.20
2023-05-14T14:47:50.935Z,12.20
2023-05-14T14:50:17.811Z,12.10
2023-05-14T14:52:46.038Z,12.20
2023-05-14T14:55:13.164Z,12.10
2023-05-14T14:57:40.026Z,12.20
2023-05-14T15:00:07.482Z,12.10
2023-05-14T15:02:34.855Z,12.10
2023-05-14T15:05:01.805Z,12.00
2023-05-14T15:07:32.826Z,12.10
2023-05-14T15:09:59.748Z,12.10
2023-05-14T15:12:26.600Z,12.10
2023-05-14T15:14:53.414Z,12.30
2023-05-14T15:17:20.403Z,12.20
2023-05-14T15:19:47.653Z,12.20
2023-05-14T15:22:14.435Z,12.20
2023-05-14T15:24:41.698Z,12.20
2023-05-14T15:27:08.451Z,12.10
2023-05-14T15:32:27.525Z,12.10
2023-05-14T15:35:02.178Z,12.10
2023-05-14T15:37:35.749Z,12.00
2023-05-14T15:40:03.214Z,11.90
2023-05-14T15:42:30.773Z,11.80
2023-05-14T15:44:57.613Z,11.90
2023-05-14T15:47:24.570Z,11.90
2023-05-14T15:49:51.352Z,12.00
2023-05-14T15:52:18.246Z,12.10
2023-05-14T15:54:46.494Z,12.00
2023-05-14T15:57:13.488Z,12.00
2023-05-14T15:59:40.254Z,12.00
2023-05-14T16:02:07.612Z,12.10
2023-05-14T16:04:34.557Z,12.10
2023-05-14T16:07:06.350Z,12.20
2023-05-14T16:09:35.198Z,12.30
2023-05-14T16:12:02.115Z,12.50
2023-05-14T16:14:28.907Z,12.50
2023-05-14T16:16:56.429Z,12.50
2023-05-14T16:19:23.631Z,12.70
2023-05-14T16:21:50.445Z,12.80
2023-05-14T16:24:17.940Z,12.90
2023-05-14T16:26:44.761Z,12.80
2023-05-14T16:29:11.703Z,12.80
2023-05-14T16:31:38.633Z,12.80
2023-05-14T16:34:05.419Z,12.90
2023-05-14T16:36:32.371Z,13.00
2023-05-14T16:39:07.195Z,13.00
2023-05-14T16:41:35.807Z,13.00
2023-05-14T16:44:02.914Z,13.00
2023-05-14T16:46:30.648Z,13.00
2023-05-14T16:48:57.747Z,13.10
2023-05-14T16:51:24.579Z,13.10
2023-05-14T16:53:52.082Z,13.20
2023-05-14T16:56:19.401Z,13.00
2023-05-14T16:58:46.170Z,13.00
2023-05-14T17:01:12.999Z,12.90
2023-05-14T17:03:39.870Z,12.90
2023-05-14T17:06:07.207Z,12.80
2023-05-14T17:08:35.620Z,12.70
2023-05-14T17:11:05.688Z,12.60
2023-05-14T17:13:33.280Z,12.60
2023-05-14T17:16:00.661Z,12.60
2023-05-14T17:18:27.819Z,12.50
2023-05-14T17:20:55.264Z,12.30
2023-05-14T17:23:22.556Z,12.20
2023-05-14T17:25:49.455Z,12.10
2023-05-14T17:28:16.352Z,12.00
2023-05-14T17:30:43.949Z,12.00
2023-05-14T17:33:11.624Z,12.00
2023-05-14T17:35:38.757Z,11.90
2023-05-14T17:38:05.588Z,11.90
2023-05-14T17:40:32.451Z,11.80
2023-05-14T17:42:59.548Z,11.70
2023-05-14T17:45:26.733Z,11.70
2023-05-14T17:47:53.790Z,11.60
2023-05-14T17:50:20.689Z,11.50
2023-05-14T17:52:47.716Z,11.30
2023-05-14T17:55:14.673Z,11.20
2023-05-14T17:57:42.283Z,11.10
2023-05-14T18:00:09.454Z,11.00
2023-05-14T18:02:36.285Z,11.00
2023-05-14T18:05:03.204Z,11.00
2023-05-14T18:07:30.212Z,10.90
2023-05-14T18:09:57.163Z,10.80
2023-05-14T18:12:25.715Z,10.80
2023-05-14T18:14:52.495Z,10.70
2023-05-14T18:17:19.368Z,10.70
2023-05-14T18:19:46.252Z,10.70
2023-05-14T18:22:13.045Z,10.60
2023-05-14T18:24:39.799Z,10.60
2023-05-14T18:27:06.699Z,10.70
2023-05-14T18:29:33.531Z,10.60
2023-05-14T18:32:00.482Z,10.70
2023-05-14T18:34:27.361Z,10.80
2023-05-14T18:36:54.256Z,10.90
2023-05-14T18:39:21.041Z,11.00
2023-05-14T18:41:47.906Z,11.10
2023-05-14T18:44:14.735Z,11.10
2023-05-14T18:46:41.680Z,10.90
2023-05-14T18:49:08.609Z,11.00
2023-05-14T18:51:35.378Z,10.90
2023-05-14T18:54:02.191Z,11.00
2023-05-14T18:56:29.322Z,11.00
2023-05-14T18:58:56.112Z,11.00
2023-05-14T19:01:25.576Z,10.90
2023-05-14T19:03:53.089Z,10.90
2023-05-14T19:06:20.174Z,10.90
2023-05-14T19:08:47.166Z,10.90
2023-05-14T19:11:13.983Z,10.90
2023-05-14T19:13:41.321Z,10.90
2023-05-14T19:16:08.639Z,10.80
2023-05-14T19:18:36.028Z,10.80
2023-05-14T19:21:03.523Z,10.80
2023-05-14T19:23:31.941Z,10.80
2023-05-14T19:25:59.384Z,10.80
2023-05-14T19:28:26.806Z,10.80
2023-05-14T19:30:54.293Z,10.80
2023-05-14T19:33:22.014Z,10.70
2023-05-14T19:35:49.591Z,10.60
2023-05-14T19:38:17.143Z,10.60
2023-05-14T19:40:45.215Z,10.50
2023-05-14T19:43:12.873Z,10.50
2023-05-14T19:45:43.385Z,10.50
2023-05-14T19:48:10.938Z,10.50
2023-05-14T19:50:38.499Z,10.40
2023-05-14T19:53:06.086Z,10.40
2023-05-14T19:55:33.657Z,10.40
2023-05-14T19:58:01.373Z,10.30
2023-05-14T20:00:28.942Z,10.30
2023-05-14T20:03:00.006Z,10.30
2023-05-14T20:05:27.795Z,10.30
2023-05-14T20:07:54.680Z,10.30
2023-05-14T20:10:21.639Z,10.30
2023-05-14T20:12:48.473Z,10.30
2023-05-14T20:15:15.334Z,10.30
2023-05-14T20:17:42.155Z,10.30
2023-05-14T20:20:10.070Z,10.20
2023-05-14T20:22:38.322Z,10.20
2023-05-14T20:25:05.522Z,10.20
2023-05-14T20:27:32.722Z,10.10
2023-05-14T20:29:59.465Z,10.10
2023-05-14T20:32:26.708Z,10.10
2023-05-14T20:34:53.767Z,10.00
2023-05-14T20:37:20.544Z,10.00
2023-05-14T20:39:47.622Z,9.80
2023-05-14T20:42:14.525Z,9.90
2023-05-14T20:44:41.288Z,9.90
2023-05-14T20:47:08.120Z,9.90
2023-05-14T20:49:34.872Z,9.80
2023-05-14T20:52:01.669Z,9.80
2023-05-14T20:54:28.534Z,9.70
2023-05-14T20:56:55.431Z,9.70
2023-05-14T20:59:22.722Z,9.70
2023-05-14T21:01:50.092Z,9.60
2023-05-14T21:04:17.028Z,9.60
2023-05-14T21:06:44.008Z,9.60
2023-05-14T21:09:10.984Z,9.60
2023-05-14T21:11:37.801Z,9.60
2023-05-14T21:14:04.707Z,9.60
2023-05-14T21:16:31.626Z,9.50
2023-05-14T21:18:58.568Z,9.60
2023-05-14T21:21:26.020Z,9.60
2023-05-14T21:23:52.913Z,9.60
2023-05-14T21:26:21.792Z,9.60
2023-05-14T21:28:48.758Z,9.60
2023-05-14T21:31:15.552Z,9.60
2023-05-14T21:33:42.290Z,9.60
2023-05-14T21:36:09.413Z,9.70
2023-05-14T21:38:36.430Z,9.70
2023-05-14T21:41:03.227Z,9.70
2023-05-14T21:43:30.026Z,9.70
2023-05-14T21:45:56.967Z,9.60
2023-05-14T21:48:24.093Z,9.60
2023-05-14T21:50:51.060Z,9.60
2023-05-14T21:53:17.959Z,9.60
2023-05-14T21:55:44.791Z,9.60
2023-05-14T21:58:11.606Z,9.60
2023-05-14T22:00:38.389Z,9.60
2023-05-14T22:03:05.247Z,9.50
2023-05-14T22:05:32.169Z,9.60
2023-05-14T22:07:58.996Z,9.60
2023-05-14T22:10:25.808Z,9.60
2023-05-14T22:12:52.565Z,9.60
2023-05-14T22:15:19.492Z,9.60
2023-05-14T22:17:47.202Z,9.60
2023-05-14T22:20:14.224Z,9.60
2023-05-14T22:22:41.161Z,9.60
2023-05-14T22:25:08.191Z,9.60
2023-05-14T22:27:34.948Z,9.60
2023-05-14T22:30:01.777Z,9.60
2023-05-14T22:32:28.562Z,9.60
2023-05-14T22:34:55.783Z,9.50
2023-05-14T22:37:22.639Z,9.50
2023-05-14T22:39:49.401Z,9.50
2023-05-14T22:42:16.138Z,9.50
2023-05-14T22:44:42.910Z,9.50
2023-05-14T22:47:09.708Z,9.50
2023-05-14T22:49:36.479Z,9.50
2023-05-14T22:52:03.330Z,9.50
2023-05-14T22:54:30.068Z,9.50
2023-05-14T22:56:57.100Z,9.50
2023-05-14T22:59:24.069Z,9.50
2023-05-14T23:01:51.115Z,9.50
2023-05-14T23:04:18.013Z,9.50
2023-05-14T23:06:44.951Z,9.40
2023-05-14T23:09:11.756Z,9.40
2023-05-14T23:11:38.598Z,9.40
2023-05-14T23:14:05.473Z,9.40
2023-05-14T23:16:32.344Z,9.30
2023-05-14T23:18:59.178Z,9.40
2023-05-14T23:21:26.093Z,9.40
2023-05-14T23:23:52.878Z,9.30
2023-05-14T23:26:19.684Z,9.30
2023-05-14T23:28:47.521Z,9.30
2023-05-14T23:31:14.393Z,9.30
2023-05-14T23:33:41.191Z,9.30
2023-05-14T23:36:08.256Z,9.20
2023-05-14T23:38:35.092Z,9.20
2023-05-14T23:41:01.918Z,9.10
2023-05-14T23:43:28.753Z,9.10
2023-05-14T23:45:58.735Z,9.10
2023-05-14T23:48:25.661Z,9.10
2023-05-14T23:50:52.463Z,9.20
2023-05-14T23:53:19.221Z,9.20
2023-05-14T23:55:46.095Z,9.10
2023-05-14T23:58:12.902Z,9.10
